Time;durP1;ratioP1;P1;durP2;ratioP2;P2;SDS_P1;SDS_P2;PMS_P1;PMS_P2;Temp;Humidity;BMP_temperature;BMP_pressure;BME280_temperature;BME280_humidity;BME280_pressure;Samples;Min_cycle;Max_cycle;Signal;HPM_P1;HPM_P2
2023/01/19 00:00:58;;;;;;;;;7.20;7.20;;;;;3.59;71.49;100043.28;5050883;28;45524;-66
2023/01/19 00:03:23;;;;;;;;;6.00;5.00;;;;;3.44;71.42;100013.41;5034152;28;45972;-64
2023/01/19 00:05:49;;;;;;;;;10.50;10.50;;;;;3.48;71.03;100019.31;5010156;28;48516;-67
2023/01/19 00:08:15;;;;;;;;;9.00;7.50;;;;;3.68;71.22;100044.03;5052282;28;45465;-65
2023/01/19 00:10:45;;;;;;;;;5.25;5.00;;;;;3.64;71.71;100045.47;5055935;28;45316;-65
2023/01/19 00:13:11;;;;;;;;;8.00;8.00;;;;;3.65;71.92;100058.84;5055706;28;45436;-65
2023/01/19 00:15:36;;;;;;;;;7.75;7.25;;;;;3.65;71.88;100063.44;5037581;28;47902;-65
2023/01/19 00:18:02;;;;;;;;;9.50;9.50;;;;;3.66;71.79;100068.69;5055737;28;45454;-66
2023/01/19 00:20:30;;;;;;;;;13.75;9.75;;;;;3.62;72.10;100077.34;5056014;28;45448;-65
2023/01/19 00:22:56;;;;;;;;;6.40;6.40;;;;;3.63;72.15;100071.75;5056382;28;45658;-66
2023/01/19 00:25:21;;;;;;;;;11.25;8.00;;;;;3.62;72.43;100061.91;5055888;28;46626;-66
2023/01/19 00:27:48;;;;;;;;;8.00;8.00;;;;;3.58;71.51;100062.47;5055885;28;45356;-66
2023/01/19 00:30:14;;;;;;;;;9.00;8.80;;;;;3.54;71.71;100072.84;5037927;28;45307;-66
2023/01/19 00:32:40;;;;;;;;;10.40;9.40;;;;;3.19;72.05;100031.72;5056194;28;45478;-66
2023/01/19 00:35:05;;;;;;;;;9.75;7.50;;;;;3.25;73.15;100064.41;5055750;28;46185;-66
2023/01/19 00:37:31;;;;;;;;;8.00;8.00;;;;;3.39;72.92;100076.34;5055733;28;45402;-66
2023/01/19 00:39:56;;;;;;;;;9.25;9.25;;;;;3.48;72.06;100076.28;5056123;28;45460;-66
2023/01/19 00:42:40;;;;;;;;;11.50;10.25;;;;;3.49;72.56;100076.13;5055650;28;45459;-65
2023/01/19 00:45:19;;;;;;;;;13.60;9.40;;;;;3.40;72.48;100063.63;5068827;28;46641;-66
2023/01/19 00:47:45;;;;;;;;;15.00;12.40;;;;;3.51;72.47;100084.91;5053098;28;45444;-66
2023/01/19 00:50:11;;;;;;;;;12.80;9.00;;;;;3.49;71.77;100081.53;5055321;28;45451;-66
2023/01/19 00:52:38;;;;;;;;;12.25;8.75;;;;;3.51;71.83;100087.63;5055700;28;45615;-66
2023/01/19 00:55:04;;;;;;;;;17.20;14.20;;;;;3.50;72.37;100080.50;5036783;28;46221;-65
2023/01/19 00:57:30;;;;;;;;;12.20;10.40;;;;;3.52;71.58;100083.88;5036832;28;45313;-66
2023/01/19 00:59:55;;;;;;;;;15.25;12.00;;;;;3.54;72.18;100089.13;5055675;28;45198;-66
2023/01/19 01:02:21;;;;;;;;;15.00;13.00;;;;;3.50;71.61;100077.78;5055524;28;45557;-65
2023/01/19 01:04:46;;;;;;;;;14.50;8.50;;;;;3.55;71.64;100089.97;5028952;28;45593;-65
2023/01/19 01:07:12;;;;;;;;;17.25;13.50;;;;;3.46;71.72;100067.50;5045989;28;45363;-65
2023/01/19 01:09:37;;;;;;;;;14.75;14.00;;;;;3.33;72.24;100055.38;5048514;28;45366;-65
2023/01/19 01:12:03;;;;;;;;;18.00;14.75;;;;;3.14;72.35;100036.88;5054957;28;45574;-65
2023/01/19 01:14:29;;;;;;;;;13.50;12.50;;;;;3.53;72.18;100098.31;5070019;28;46349;-65
2023/01/19 01:16:54;;;;;;;;;13.75;11.50;;;;;3.53;71.58;100104.56;5053797;28;45396;-65
2023/01/19 01:19:20;;;;;;;;;11.00;9.75;;;;;3.29;71.18;100081.16;5070664;28;45466;-65
2023/01/19 01:21:45;;;;;;;;;13.00;11.50;;;;;3.26;71.24;100092.38;5036564;28;45674;-65
2023/01/19 01:24:11;;;;;;;;;10.00;9.00;;;;;3.46;71.59;100128.00;5053190;28;45735;-65
2023/01/19 01:26:37;;;;;;;;;17.25;12.00;;;;;3.43;71.89;100119.38;5054414;28;45341;-65
2023/01/19 01:29:04;;;;;;;;;15.25;13.25;;;;;3.46;70.96;100124.47;5054541;28;45305;-66
2023/01/19 01:31:30;;;;;;;;;13.20;13.20;;;;;3.37;71.44;100124.50;5053756;28;45656;-65
2023/01/19 01:33:55;;;;;;;;;19.20;15.20;;;;;3.10;71.30;100080.59;5036309;28;45999;-65
2023/01/19 01:36:21;;;;;;;;;12.25;12.25;;;;;3.38;71.67;100125.38;5053242;28;45469;-65
2023/01/19 01:38:47;;;;;;;;;13.75;11.00;;;;;3.30;71.15;100126.25;5054309;28;45436;-65
2023/01/19 01:41:12;;;;;;;;;16.50;11.75;;;;;3.32;71.41;100139.66;5020116;28;45431;-65
2023/01/19 01:43:57;;;;;;;;;9.00;9.00;;;;;3.30;71.32;100149.84;5054346;28;46428;-65
2023/01/19 01:46:22;;;;;;;;;13.80;13.60;;;;;3.31;71.37;100140.66;5037022;28;45397;-65
2023/01/19 01:49:09;;;;;;;;;19.50;14.75;;;;;3.23;71.67;100147.84;5054059;28;45804;-65
2023/01/19 01:51:55;;;;;;;;;15.20;14.20;;;;;3.11;72.35;100144.66;5036649;28;45457;-64
2023/01/19 01:54:28;;;;;;;;;16.00;14.00;;;;;3.11;72.50;100141.94;5053706;28;46808;-65
2023/01/19 01:56:55;;;;;;;;;22.20;18.40;;;;;3.20;72.39;100156.31;5069604;28;45389;-64
2023/01/19 01:59:28;;;;;;;;;19.20;17.00;;;;;3.09;71.90;100149.44;5054249;28;45393;-65
2023/01/19 02:04:39;;;;;;;;;13.20;10.40;;;;;3.29;71.91;100157.13;5038850;28;45319;-64
2023/01/19 02:15:17;;;;;;;;;19.60;15.40;;;;;3.01;73.21;100121.50;5038326;28;45504;-64
2023/01/19 02:17:43;;;;;;;;;20.40;17.00;;;;;3.25;72.98;100164.78;5054084;28;45351;-64
2023/01/19 02:20:09;;;;;;;;;18.75;16.75;;;;;3.20;72.71;100160.91;5035995;28;45346;-64
2023/01/19 02:22:39;;;;;;;;;25.80;16.40;;;;;3.28;72.20;100166.28;5069975;28;45747;-64
2023/01/19 02:25:05;;;;;;;;;23.60;18.00;;;;;3.29;71.95;100167.97;5052985;28;45727;-64
2023/01/19 02:27:31;;;;;;;;;18.50;16.50;;;;;3.30;72.36;100168.81;5053137;28;45351;-66
2023/01/19 02:29:57;;;;;;;;;22.50;19.50;;;;;3.31;72.32;100170.50;5056331;28;45428;-65
2023/01/19 02:32:23;;;;;;;;;11.20;6.80;;;;;3.25;72.49;100166.63;5057476;28;45435;-65
2023/01/19 02:34:48;;;;;;;;;17.75;16.00;;;;;3.09;72.56;100141.28;5057344;28;46061;-65
2023/01/19 02:37:14;;;;;;;;;20.25;16.50;;;;;3.19;72.75;100164.63;5072806;28;45417;-65
2023/01/19 02:39:56;;;;;;;;;19.25;15.25;;;;;2.95;72.40;100159.13;5057204;28;45572;-65
2023/01/19 02:42:29;;;;;;;;;18.40;14.00;;;;;3.05;72.98;100172.47;5022813;28;45545;-65
2023/01/19 02:44:55;;;;;;;;;19.20;16.20;;;;;3.15;72.60;100161.41;5072469;28;46116;-65
2023/01/19 02:47:21;;;;;;;;;18.60;17.00;;;;;3.23;72.54;100158.69;5057455;28;45338;-65
2023/01/19 02:49:55;;;;;;;;;15.40;15.00;;;;;2.99;72.46;100127.13;5073172;28;45392;-65
2023/01/19 02:52:21;;;;;;;;;15.60;12.60;;;;;3.16;72.06;100146.88;5023091;28;45919;-65
2023/01/19 02:54:55;;;;;;;;;16.80;13.20;;;;;3.04;71.62;100124.69;5039181;28;45509;-65
2023/01/19 02:57:43;;;;;;;;;17.20;13.40;;;;;3.25;72.02;100156.63;5056931;28;45538;-65
2023/01/19 03:00:15;;;;;;;;;20.20;16.20;;;;;3.22;71.85;100154.28;5057105;28;45457;-66
2023/01/19 03:02:59;;;;;;;;;24.00;16.20;;;;;3.16;71.54;100154.13;5057113;28;45144;-66
2023/01/19 03:05:32;;;;;;;;;19.40;16.00;;;;;2.81;72.03;100089.41;5027147;27;45430;-66
2023/01/19 03:08:06;;;;;;;;;7.40;4.80;;;;;3.21;71.67;100151.75;5071625;28;45694;-65
2023/01/19 03:10:38;;;;;;;;;20.60;14.80;;;;;3.07;71.68;100137.91;5038427;28;45398;-65
2023/01/19 03:13:22;;;;;;;;;15.40;12.40;;;;;3.16;71.68;100143.28;5038929;28;45489;-64
2023/01/19 03:15:56;;;;;;;;;18.60;15.80;;;;;3.23;71.70;100158.69;5050043;28;46541;-64
2023/01/19 03:18:24;;;;;;;;;15.40;13.80;;;;;3.21;71.77;100173.44;5036486;28;45383;-65
2023/01/19 03:20:52;;;;;;;;;17.00;16.00;;;;;3.19;72.44;100154.63;5035067;28;45390;-64
2023/01/19 03:23:17;;;;;;;;;16.20;14.20;;;;;3.25;71.99;100159.34;5051984;28;45364;-65
2023/01/19 03:25:44;;;;;;;;;15.50;13.50;;;;;3.25;72.16;100156.63;5051492;28;45306;-65
2023/01/19 03:28:09;;;;;;;;;18.00;14.20;;;;;3.20;71.34;100144.63;5034920;28;45374;-65
2023/01/19 03:30:38;;;;;;;;;19.75;14.50;;;;;3.15;71.19;100134.28;5051679;28;45279;-64
2023/01/19 03:33:17;;;;;;;;;19.80;16.00;;;;;3.11;71.86;100133.81;5035326;28;45418;-64
2023/01/19 03:35:45;;;;;;;;;18.00;14.00;;;;;3.22;71.46;100150.72;5033813;28;46340;-65
2023/01/19 03:38:16;;;;;;;;;18.80;16.00;;;;;3.20;71.72;100161.75;5034734;28;45364;-65
2023/01/19 03:40:41;;;;;;;;;16.40;15.40;;;;;3.24;71.51;100162.22;5017252;28;45250;-64
2023/01/19 03:43:07;;;;;;;;;16.75;14.75;;;;;3.22;71.52;100169.72;5052183;28;45656;-65
2023/01/19 03:45:32;;;;;;;;;19.75;15.00;;;;;3.19;71.30;100172.75;5048074;28;45582;-64
2023/01/19 03:47:58;;;;;;;;;21.75;19.00;;;;;3.20;71.99;100171.75;5031360;28;45351;-64
2023/01/19 03:50:28;;;;;;;;;18.75;17.75;;;;;2.88;71.85;100127.50;5048255;28;45338;-64
2023/01/19 03:53:07;;;;;;;;;19.40;15.80;;;;;3.10;71.52;100156.53;5014556;28;45514;-65
2023/01/19 03:55:34;;;;;;;;;19.00;17.40;;;;;3.20;72.08;100163.63;5015998;28;45584;-64
2023/01/19 03:57:59;;;;;;;;;21.60;16.00;;;;;3.21;71.49;100159.88;5031375;28;45442;-64
2023/01/19 04:00:25;;;;;;;;;14.75;13.25;;;;;3.27;72.08;100174.59;5047996;28;45351;-64
2023/01/19 04:02:50;;;;;;;;;18.25;16.00;;;;;3.27;71.51;100175.44;5031523;28;45641;-64
2023/01/19 04:05:16;;;;;;;;;20.25;17.00;;;;;3.24;71.85;100175.78;5014344;28;45773;-65
2023/01/19 04:07:41;;;;;;;;;24.00;20.50;;;;;3.25;71.52;100178.34;5015231;28;45339;-65
2023/01/19 04:10:11;;;;;;;;;20.00;17.50;;;;;3.27;71.51;100177.31;4997986;28;45430;-65
2023/01/19 04:12:38;;;;;;;;;17.20;14.40;;;;;3.27;71.72;100180.00;5016066;28;45635;-65
2023/01/19 04:15:05;;;;;;;;;18.20;12.80;;;;;3.25;72.03;100167.47;5030271;28;45595;-65
2023/01/19 04:17:31;;;;;;;;;23.60;19.60;;;;;3.24;71.90;100173.06;5035907;28;45431;-65
2023/01/19 04:19:56;;;;;;;;;16.50;15.50;;;;;3.24;71.56;100179.34;5050880;28;45434;-65
2023/01/19 04:22:22;;;;;;;;;20.00;15.00;;;;;3.22;71.15;100173.28;5034531;28;45663;-65
2023/01/19 04:24:47;;;;;;;;;22.00;17.00;;;;;3.21;71.77;100168.03;5035475;28;46511;-65
2023/01/19 04:27:15;;;;;;;;;11.00;8.00;;;;;3.22;71.57;100164.28;5033934;28;45463;-65
2023/01/19 04:29:41;;;;;;;;;22.60;17.80;;;;;2.93;71.20;100125.13;5035423;28;45294;-65
2023/01/19 04:32:06;;;;;;;;;20.40;16.00;;;;;3.16;71.75;100162.28;5051060;28;45249;-64
2023/01/19 04:34:32;;;;;;;;;25.50;19.25;;;;;3.19;71.72;100162.75;5050746;28;46219;-64
2023/01/19 04:36:57;;;;;;;;;20.75;17.50;;;;;3.17;71.76;100164.81;5035388;28;45203;-65
2023/01/19 04:39:23;;;;;;;;;18.25;14.25;;;;;3.13;72.24;100168.91;5033941;28;45304;-65
2023/01/19 04:41:50;;;;;;;;;17.00;16.25;;;;;3.09;71.85;100162.13;5035771;28;45325;-65
2023/01/19 04:44:16;;;;;;;;;20.20;13.00;;;;;3.05;72.05;100158.94;5050014;28;46120;-65
2023/01/19 04:46:42;;;;;;;;;20.20;15.20;;;;;2.81;71.71;100133.63;5055244;28;45401;-65
2023/01/19 04:49:08;;;;;;;;;16.00;16.00;;;;;2.98;71.59;100155.22;5054876;28;45571;-67
2023/01/19 04:51:34;;;;;;;;;18.60;15.00;;;;;3.01;71.89;100168.44;5070706;28;45575;-65
2023/01/19 04:54:00;;;;;;;;;16.80;12.20;;;;;2.98;72.01;100171.50;5055234;28;45428;-65
2023/01/19 04:56:27;;;;;;;;;15.00;8.60;;;;;3.00;72.30;100176.75;5054985;28;45547;-65
2023/01/19 04:58:52;;;;;;;;;20.00;16.80;;;;;3.01;72.16;100164.88;5055474;28;45243;-65
2023/01/19 05:01:18;;;;;;;;;20.50;13.00;;;;;3.01;72.22;100164.88;5036978;28;45347;-65
2023/01/19 05:03:43;;;;;;;;;20.75;16.00;;;;;2.93;72.15;100158.47;5070554;28;47006;-65
2023/01/19 05:06:09;;;;;;;;;16.25;14.50;;;;;2.97;72.03;100175.25;5054893;28;45293;-65
2023/01/19 05:08:34;;;;;;;;;10.00;8.00;;;;;2.95;71.97;100171.88;5054829;28;45694;-65
2023/01/19 05:11:00;;;;;;;;;14.00;10.75;;;;;2.89;72.27;100165.28;5055231;28;45351;-65
2023/01/19 05:13:25;;;;;;;;;18.00;15.00;;;;;2.94;72.31;100165.59;5042043;28;45553;-65
2023/01/19 05:15:51;;;;;;;;;18.75;13.25;;;;;2.86;72.33;100162.91;5052750;28;45664;-65
2023/01/19 05:18:17;;;;;;;;;17.00;12.25;;;;;2.92;72.31;100173.06;5069595;28;45489;-65
2023/01/19 05:20:42;;;;;;;;;15.75;12.75;;;;;2.88;72.10;100179.00;5053811;28;45404;-65
2023/01/19 05:23:07;;;;;;;;;15.25;10.50;;;;;2.84;72.51;100173.09;5019434;28;47008;-65
2023/01/19 05:25:33;;;;;;;;;12.75;12.75;;;;;2.83;72.51;100174.94;5054424;28;45381;-65
2023/01/19 05:27:59;;;;;;;;;15.75;12.00;;;;;2.77;72.41;100163.97;5051834;28;45535;-65
2023/01/19 05:30:24;;;;;;;;;9.75;9.75;;;;;2.78;72.47;100157.53;5031035;28;45514;-65
2023/01/19 05:32:50;;;;;;;;;18.00;14.75;;;;;2.70;72.09;100142.13;5053379;28;46474;-65
2023/01/19 05:35:15;;;;;;;;;13.25;10.25;;;;;2.87;72.10;100171.91;5054524;28;45420;-65
2023/01/19 05:37:41;;;;;;;;;14.75;10.00;;;;;2.90;72.53;100168.84;5054704;28;45414;-65
2023/01/19 05:40:08;;;;;;;;;15.75;9.00;;;;;2.71;72.22;100154.66;5054831;28;45412;-65
2023/01/19 05:42:33;;;;;;;;;17.00;11.80;;;;;2.86;71.88;100184.59;5036157;28;47166;-65
2023/01/19 05:44:59;;;;;;;;;12.00;10.00;;;;;2.84;72.19;100184.78;5054399;28;45666;-65
2023/01/19 05:47:25;;;;;;;;;13.75;12.25;;;;;2.84;72.33;100182.06;5055086;28;45263;-66
2023/01/19 05:49:50;;;;;;;;;9.80;9.80;;;;;2.88;72.25;100176.31;5036665;28;45403;-65
2023/01/19 05:52:16;;;;;;;;;15.00;11.00;;;;;2.89;72.62;100184.28;5054515;28;46846;-65
2023/01/19 05:54:41;;;;;;;;;18.25;16.25;;;;;2.90;72.45;100177.81;5054173;28;45421;-65
2023/01/19 05:57:07;;;;;;;;;18.75;15.75;;;;;2.82;72.70;100159.72;5055185;28;45958;-65
2023/01/19 05:59:32;;;;;;;;;14.75;12.50;;;;;2.87;72.66;100182.75;5070250;28;45503;-67
2023/01/19 06:01:58;;;;;;;;;15.75;13.00;;;;;2.85;72.72;100182.91;5054339;28;46359;-65
2023/01/19 06:04:24;;;;;;;;;17.50;17.00;;;;;2.87;72.81;100180.88;5057442;28;45431;-65
2023/01/19 06:06:49;;;;;;;;;16.25;13.75;;;;;2.88;73.06;100181.72;5039961;28;45389;-65
2023/01/19 06:09:16;;;;;;;;;17.75;16.50;;;;;2.85;73.01;100178.31;5023412;28;45578;-65
2023/01/19 06:11:42;;;;;;;;;13.40;13.00;;;;;2.85;73.04;100183.75;5039952;28;45749;-66
2023/01/19 06:14:09;;;;;;;;;16.20;12.40;;;;;2.84;73.28;100176.63;5057957;28;45419;-66
2023/01/19 06:16:35;;;;;;;;;19.00;13.20;;;;;2.64;72.85;100154.53;5057872;28;45439;-64
2023/01/19 06:19:00;;;;;;;;;9.50;5.25;;;;;2.76;73.25;100176.69;5058120;28;45219;-67
2023/01/19 06:21:26;;;;;;;;;21.00;18.25;;;;;2.68;73.26;100171.28;5039633;28;45487;-64
2023/01/19 06:23:51;;;;;;;;;10.25;10.25;;;;;2.74;73.54;100189.56;5057777;28;45530;-65
2023/01/19 06:26:16;;;;;;;;;17.75;11.00;;;;;2.77;73.68;100196.50;5056457;28;45431;-65
2023/01/19 06:28:42;;;;;;;;;18.00;15.50;;;;;2.79;73.64;100195.31;5057816;28;45575;-65
2023/01/19 06:31:08;;;;;;;;;19.75;12.25;;;;;2.65;73.46;100158.94;5057492;28;45690;-65
2023/01/19 06:33:33;;;;;;;;;11.00;11.00;;;;;2.87;73.57;100193.59;5057702;28;45360;-65
2023/01/19 06:35:58;;;;;;;;;16.00;12.75;;;;;2.87;73.26;100199.00;5057691;28;45298;-65
2023/01/19 06:38:24;;;;;;;;;18.25;12.25;;;;;2.87;73.04;100197.13;5057566;28;45538;-64
2023/01/19 06:40:58;;;;;;;;;10.25;9.75;;;;;2.83;73.25;100202.06;5057462;28;46318;-64
2023/01/19 06:43:24;;;;;;;;;13.80;11.60;;;;;2.74;72.75;100181.44;5057744;28;45420;-65
2023/01/19 06:45:50;;;;;;;;;13.40;9.20;;;;;2.85;72.86;100197.31;5035929;28;45359;-65
2023/01/19 06:48:15;;;;;;;;;12.75;10.50;;;;;2.88;72.83;100206.94;5037686;28;45365;-64
2023/01/19 06:50:43;;;;;;;;;13.50;11.00;;;;;2.49;72.98;100143.56;5036909;28;45695;-65
2023/01/19 06:53:09;;;;;;;;;8.60;8.60;;;;;2.87;73.13;100213.41;5037044;28;45460;-64
2023/01/19 06:55:35;;;;;;;;;11.25;8.50;;;;;2.89;72.75;100207.81;5037346;28;45390;-66
2023/01/19 06:58:01;;;;;;;;;13.40;12.40;;;;;2.72;72.86;100180.75;5019219;28;45389;-65
2023/01/19 07:00:27;;;;;;;;;8.25;8.25;;;;;2.85;72.77;100208.13;5012304;28;45963;-65
2023/01/19 07:02:53;;;;;;;;;12.80;12.00;;;;;2.85;72.68;100213.56;5026088;28;45475;-64
2023/01/19 07:05:20;;;;;;;;;13.75;7.75;;;;;2.84;73.11;100208.34;5035562;28;45481;-65
2023/01/19 07:07:51;;;;;;;;;13.40;11.40;;;;;2.03;72.91;100093.56;5037630;28;45607;-65
2023/01/19 07:10:16;;;;;;;;;12.40;7.60;;;;;2.75;72.95;100221.06;5052275;28;46179;-64
2023/01/19 07:12:45;;;;;;;;;10.50;10.50;;;;;2.66;72.96;100200.44;5052597;28;45426;-65
2023/01/19 07:15:10;;;;;;;;;9.20;8.40;;;;;2.68;73.31;100203.81;5035280;28;45353;-66
2023/01/19 07:17:36;;;;;;;;;13.00;11.00;;;;;2.66;73.41;100208.56;5037195;28;45654;-65
2023/01/19 07:20:02;;;;;;;;;9.50;9.25;;;;;2.64;73.45;100206.03;5036700;28;45401;-65
2023/01/19 07:22:27;;;;;;;;;12.75;10.50;;;;;2.65;73.37;100209.56;5036834;28;45326;-65
2023/01/19 07:24:53;;;;;;;;;12.25;7.00;;;;;2.61;73.23;100200.94;5036938;28;45268;-64
2023/01/19 07:27:18;;;;;;;;;11.75;10.75;;;;;2.61;73.32;100205.53;5035594;28;45972;-64
2023/01/19 07:29:44;;;;;;;;;10.00;10.00;;;;;2.60;73.70;100203.84;5036735;28;46342;-65
2023/01/19 07:32:09;;;;;;;;;11.50;8.75;;;;;2.61;73.82;100208.22;5018703;28;45406;-65
2023/01/19 07:34:35;;;;;;;;;15.75;12.50;;;;;2.60;73.45;100211.97;5018724;28;45405;-65
2023/01/19 07:37:01;;;;;;;;;11.60;10.80;;;;;2.60;73.59;100217.38;5036885;28;45331;-65
2023/01/19 07:39:27;;;;;;;;;11.00;10.25;;;;;2.58;73.60;100217.56;5018624;28;45560;-64
2023/01/19 07:41:52;;;;;;;;;16.75;14.00;;;;;2.57;73.18;100224.00;5034969;28;45356;-63
2023/01/19 07:44:18;;;;;;;;;13.50;11.00;;;;;2.52;73.15;100224.47;5036665;28;45520;-64
2023/01/19 07:46:43;;;;;;;;;12.00;10.75;;;;;2.49;73.93;100226.69;5021724;28;45452;-65
2023/01/19 07:49:09;;;;;;;;;16.00;12.75;;;;;2.26;74.03;100190.34;5056000;28;45408;-64
2023/01/19 07:51:35;;;;;;;;;12.25;12.25;;;;;2.39;74.07;100230.44;5055861;28;45390;-64
2023/01/19 07:54:00;;;;;;;;;14.75;12.75;;;;;2.32;74.72;100217.72;5055987;28;45373;-64
2023/01/19 07:56:28;;;;;;;;;15.25;15.25;;;;;1.96;74.21;100145.84;5038205;28;45433;-64
2023/01/19 07:58:53;;;;;;;;;15.20;12.20;;;;;2.52;73.41;100232.59;5056109;28;46425;-64
2023/01/19 08:01:19;;;;;;;;;12.75;12.50;;;;;2.34;74.02;100215.72;5037729;28;45334;-64
2023/01/19 08:03:46;;;;;;;;;13.00;12.75;;;;;2.42;73.77;100230.06;5056238;28;45283;-64
2023/01/19 08:06:22;;;;;;;;;10.40;10.00;;;;;2.38;73.92;100231.47;5056088;28;45501;-65
2023/01/19 08:08:48;;;;;;;;;12.40;12.20;;;;;2.52;73.35;100240.72;5038313;28;45467;-64
2023/01/19 08:11:14;;;;;;;;;17.00;11.50;;;;;2.56;73.63;100238.56;5055850;28;45428;-63
2023/01/19 08:13:39;;;;;;;;;7.75;7.50;;;;;2.55;73.40;100242.25;5037627;28;45439;-64
2023/01/19 08:16:05;;;;;;;;;16.00;12.25;;;;;2.55;73.58;100245.84;5056236;28;45295;-65
2023/01/19 08:18:31;;;;;;;;;12.00;11.00;;;;;2.49;73.70;100232.97;5055581;28;46034;-64
2023/01/19 08:21:00;;;;;;;;;19.75;17.75;;;;;2.36;73.55;100203.72;5055699;28;45358;-63
2023/01/19 08:23:26;;;;;;;;;13.20;11.00;;;;;2.65;73.34;100255.63;5071596;28;45735;-65
2023/01/19 08:25:52;;;;;;;;;13.80;13.20;;;;;2.67;73.25;100250.91;5055376;28;45399;-64
2023/01/19 08:28:18;;;;;;;;;12.00;12.00;;;;;2.70;73.44;100253.25;5055699;28;46237;-64
2023/01/19 08:30:43;;;;;;;;;12.75;12.00;;;;;2.64;72.69;100235.81;5055599;28;45368;-66
2023/01/19 08:33:12;;;;;;;;;14.00;11.75;;;;;2.59;72.82;100205.69;5054499;28;45396;-65
2023/01/19 08:35:42;;;;;;;;;17.20;12.20;;;;;2.80;72.82;100242.22;5037784;28;46069;-65
2023/01/19 08:38:07;;;;;;;;;17.80;12.80;;;;;2.92;72.75;100253.53;5037402;28;47284;-65
2023/01/19 08:40:38;;;;;;;;;21.25;15.50;;;;;2.94;72.36;100256.94;5055308;28;45783;-64
2023/01/19 08:43:06;;;;;;;;;21.80;16.60;;;;;2.84;72.50;100222.72;5055550;28;45323;-64
2023/01/19 08:45:46;;;;;;;;;25.20;17.80;;;;;3.01;72.32;100236.25;5070648;28;45476;-66
2023/01/19 08:48:13;;;;;;;;;22.20;16.40;;;;;3.03;72.89;100246.91;5055337;28;46843;-65
2023/01/19 08:50:38;;;;;;;;;20.40;19.40;;;;;2.93;72.29;100236.28;5055425;28;45558;-66
2023/01/19 08:53:07;;;;;;;;;15.50;15.25;;;;;2.81;72.67;100217.66;5055417;28;45385;-65
2023/01/19 08:55:33;;;;;;;;;26.00;20.80;;;;;3.06;72.39;100258.25;5055659;28;45709;-65
2023/01/19 08:58:00;;;;;;;;;21.40;18.40;;;;;3.07;72.53;100243.69;5024937;28;45471;-65
2023/01/19 09:00:26;;;;;;;;;16.60;15.20;;;;;3.17;71.55;100245.31;5052695;28;45408;-65
2023/01/19 09:02:51;;;;;;;;;22.50;17.75;;;;;2.76;72.26;100173.09;5035552;28;45534;-66
2023/01/19 09:05:17;;;;;;;;;22.25;14.25;;;;;3.28;71.62;100255.81;5037693;28;45628;-65
2023/01/19 09:07:45;;;;;;;;;20.25;20.25;;;;;3.32;71.82;100268.00;5055101;28;45900;-63
2023/01/19 09:10:10;;;;;;;;;26.00;22.20;;;;;3.27;71.41;100264.97;5020993;28;45404;-66
2023/01/19 09:12:36;;;;;;;;;26.50;20.75;;;;;3.22;72.30;100267.34;5036966;28;45390;-64
2023/01/19 09:15:02;;;;;;;;;24.50;21.75;;;;;3.21;71.35;100265.66;5055206;28;45546;-63
2023/01/19 09:17:27;;;;;;;;;19.25;17.50;;;;;3.17;71.97;100248.03;5055022;28;46126;-64
2023/01/19 09:19:53;;;;;;;;;21.25;20.50;;;;;3.20;71.93;100242.28;5055013;28;45523;-67
2023/01/19 09:22:18;;;;;;;;;20.75;20.25;;;;;3.36;71.45;100266.59;5055054;28;45740;-65
2023/01/19 09:24:44;;;;;;;;;26.25;21.50;;;;;3.44;71.07;100256.75;5037750;28;45369;-63
2023/01/19 09:27:10;;;;;;;;;33.75;26.25;;;;;3.41;70.97;100246.25;5036553;28;45446;-62
2023/01/19 09:29:35;;;;;;;;;27.50;20.75;;;;;3.22;70.80;100222.09;5037136;28;45434;-66
2023/01/19 09:32:01;;;;;;;;;23.25;21.75;;;;;3.15;71.00;100204.81;5036862;28;45362;-65
2023/01/19 09:34:26;;;;;;;;;25.50;20.50;;;;;3.41;71.03;100254.41;5055431;28;45553;-66
2023/01/19 09:36:52;;;;;;;;;27.25;21.50;;;;;3.36;71.23;100254.94;5054691;28;46438;-66
2023/01/19 09:39:18;;;;;;;;;26.25;24.00;;;;;3.23;71.23;100234.63;5057795;28;45342;-65
2023/01/19 09:41:59;;;;;;;;;30.00;22.40;;;;;3.34;71.41;100255.09;5040579;28;45337;-66
2023/01/19 09:44:31;;;;;;;;;26.20;21.20;;;;;3.18;71.34;100231.59;5040131;28;45332;-65
2023/01/19 09:46:56;;;;;;;;;27.40;22.60;;;;;3.31;71.29;100251.91;5039660;28;47425;-65
2023/01/19 09:49:32;;;;;;;;;23.00;21.50;;;;;3.31;71.23;100257.31;5005841;27;45382;-62
2023/01/19 09:51:58;;;;;;;;;27.20;21.00;;;;;3.43;71.63;100265.91;5052878;28;45425;-65
2023/01/19 09:54:37;;;;;;;;;29.75;24.75;;;;;3.37;71.06;100260.16;5036742;28;45306;-69
2023/01/19 09:57:08;;;;;;;;;24.60;22.80;;;;;3.43;71.59;100265.91;5037550;28;47769;-67
2023/01/19 09:59:35;;;;;;;;;26.80;20.00;;;;;3.36;71.32;100247.63;5012389;28;45461;-64
2023/01/19 10:02:09;;;;;;;;;25.60;20.60;;;;;3.25;71.22;100220.88;5025059;28;45398;-65
2023/01/19 10:04:50;;;;;;;;;22.60;18.80;;;;;3.52;70.68;100262.13;5018209;28;45535;-63
2023/01/19 10:07:38;;;;;;;;;29.60;25.60;;;;;2.80;71.41;100147.34;5037276;28;45740;-66
2023/01/19 10:10:20;;;;;;;;;29.20;25.40;;;;;3.58;71.73;100268.72;5036277;28;45486;-64
2023/01/19 10:13:13;;;;;;;;;29.80;26.80;;;;;3.59;71.26;100270.41;5037740;28;45439;-64
2023/01/19 10:15:45;;;;;;;;;26.40;24.00;;;;;3.60;70.92;100272.97;5037721;28;45407;-65
2023/01/19 10:18:47;;;;;;;;;27.40;22.20;;;;;3.64;70.71;100268.84;5052326;28;46118;-65
2023/01/19 10:21:34;;;;;;;;;28.40;24.20;;;;;3.60;70.98;100267.53;5035951;28;45500;-65
2023/01/19 10:24:12;;;;;;;;;28.00;25.20;;;;;3.70;71.63;100271.88;5039789;28;45409;-64
2023/01/19 10:26:56;;;;;;;;;29.60;26.80;;;;;3.68;71.51;100254.94;5037581;28;45390;-64
2023/01/19 10:29:36;;;;;;;;;35.80;27.60;;;;;3.64;71.08;100270.72;5037020;28;45822;-64
2023/01/19 10:32:34;;;;;;;;;28.60;23.20;;;;;3.65;71.69;100256.13;5037359;28;45305;-62
2023/01/19 10:35:00;;;;;;;;;31.00;23.60;;;;;3.74;71.86;100259.66;5024541;28;45344;-64
2023/01/19 10:37:44;;;;;;;;;36.25;29.75;;;;;3.71;70.73;100258.13;5035795;28;45390;-63
2023/01/19 10:40:09;;;;;;;;;22.40;22.00;;;;;3.43;70.80;100209.78;5037311;28;45372;-64
2023/01/19 10:42:35;;;;;;;;;34.75;25.75;;;;;3.76;70.79;100239.44;5036204;28;45381;-63
2023/01/19 10:45:01;;;;;;;;;30.60;27.40;;;;;3.84;71.40;100249.38;5052225;28;45779;-65
2023/01/19 10:47:32;;;;;;;;;30.80;27.20;;;;;3.58;70.55;100203.59;5035805;28;45383;-63
2023/01/19 10:49:58;;;;;;;;;34.40;25.20;;;;;3.75;71.12;100226.88;5031468;28;45729;-63
2023/01/19 10:52:34;;;;;;;;;11.50;8.00;;;;;3.78;70.85;100234.66;5013141;28;45791;-65
2023/01/19 10:55:01;;;;;;;;;31.40;27.00;;;;;3.63;70.82;100201.19;5014373;28;45489;-63
2023/01/19 10:57:27;;;;;;;;;24.00;24.00;;;;;3.78;71.48;100236.53;5040019;28;45594;-64
2023/01/19 10:59:53;;;;;;;;;27.80;23.40;;;;;3.65;70.98;100212.69;4979371;28;45963;-63
2023/01/19 11:02:26;;;;;;;;;32.25;26.50;;;;;3.76;71.08;100227.72;5016897;28;45930;-64
2023/01/19 11:04:54;;;;;;;;;32.40;22.80;;;;;3.83;71.21;100227.88;5011094;28;45539;-64
2023/01/19 11:07:34;;;;;;;;;31.20;27.60;;;;;3.74;71.03;100217.03;5022855;28;45691;-65
2023/01/19 11:10:15;;;;;;;;;29.40;27.60;;;;;3.87;71.02;100230.03;5027464;28;46444;-62
2023/01/19 11:12:44;;;;;;;;;31.40;27.40;;;;;3.90;71.27;100224.22;5027085;28;45435;-64
2023/01/19 11:15:30;;;;;;;;;33.40;29.20;;;;;3.90;71.12;100224.22;5023768;28;45443;-65
2023/01/19 11:17:56;;;;;;;;;32.80;27.00;;;;;3.91;71.21;100214.22;5023728;28;45542;-63
2023/01/19 11:20:22;;;;;;;;;31.00;29.50;;;;;3.92;71.53;100214.06;5059355;28;46378;-65
2023/01/19 11:22:48;;;;;;;;;32.80;29.20;;;;;3.95;71.28;100210.09;5028522;28;45445;-61
2023/01/19 11:25:40;;;;;;;;;25.25;25.25;;;;;3.97;71.70;100220.78;5029045;28;45398;-64
2023/01/19 11:28:39;;;;;;;;;30.20;29.80;;;;;3.91;71.04;100206.09;5041841;28;45818;-64
2023/01/19 11:31:13;;;;;;;;;29.80;25.80;;;;;3.80;71.21;100183.75;5019558;28;45606;-65
2023/01/19 11:33:47;;;;;;;;;26.20;23.80;;;;;3.91;71.43;100212.34;5027107;28;45445;-64
2023/01/19 11:36:14;;;;;;;;;28.40;25.20;;;;;3.93;71.06;100196.72;5028009;28;45509;-64